TimeMST,TemperatureF,Dew PointF,Humidity,Sea Level PressureIn,VisibilityMPH,Wind Direction,Wind SpeedMPH,Gust SpeedMPH,PrecipitationIn,Events,Conditions,WindDirDegrees,DateUTC
12:55 AM,60.8,26.6,27,30.04,10.0,Calm,Calm,-,N/A,,Clear,0,2012-10-30 07:55:00
1:15 AM,57.2,26.6,31,30.04,10.0,Calm,Calm,-,N/A,,Clear,0,2012-10-30 08:15:00
1:55 AM,57.2,26.6,31,30.04,10.0,Calm,Calm,-,N/A,,Clear,0,2012-10-30 08:55:00
2:15 AM,55.4,26.6,33,30.04,10.0,Calm,Calm,-,N/A,,Clear,0,2012-10-30 09:15:00
2:35 AM,57.2,26.6,31,30.04,10.0,Calm,Calm,-,N/A,,Clear,0,2012-10-30 09:35:00
2:55 AM,57.2,26.6,31,30.04,10.0,Calm,Calm,-,N/A,,Clear,0,2012-10-30 09:55:00
3:15 AM,55.4,26.6,33,30.04,10.0,Calm,Calm,-,N/A,,Clear,0,2012-10-30 10:15:00
3:35 AM,55.4,26.6,33,30.04,10.0,Calm,Calm,-,N/A,,Clear,0,2012-10-30 10:35:00
3:55 AM,53.6,26.6,35,30.04,10.0,Calm,Calm,-,N/A,,Clear,0,2012-10-30 10:55:00
4:15 AM,53.6,24.8,33,30.04,10.0,Calm,Calm,-,N/A,,Clear,0,2012-10-30 11:15:00
4:35 AM,57.2,28.4,33,30.04,10.0,Calm,Calm,-,N/A,,Clear,0,2012-10-30 11:35:00
4:55 AM,53.6,26.6,35,30.04,10.0,Calm,Calm,-,N/A,,Clear,0,2012-10-30 11:55:00
5:15 AM,53.6,26.6,35,30.04,10.0,Calm,Calm,-,N/A,,Clear,0,2012-10-30 12:15:00
5:35 AM,55.4,28.4,36,30.05,10.0,Calm,Calm,-,N/A,,Clear,0,2012-10-30 12:35:00
5:55 AM,51.8,24.8,35,30.05,10.0,Calm,Calm,-,N/A,,Clear,0,2012-10-30 12:55:00
6:35 AM,53.6,28.4,38,30.06,10.0,NE,4.6,-,N/A,,Clear,50,2012-10-30 13:35:00
6:55 AM,53.6,28.4,38,30.06,10.0,Calm,Calm,-,N/A,,Clear,0,2012-10-30 13:55:00
7:15 AM,55.4,30.2,38,30.06,10.0,Calm,Calm,-,N/A,,Clear,0,2012-10-30 14:15:00
7:35 AM,57.2,30.2,36,30.07,10.0,Calm,Calm,-,N/A,,Clear,0,2012-10-30 14:35:00
7:55 AM,60.8,30.2,31,30.08,10.0,Calm,Calm,-,N/A,,Clear,0,2012-10-30 14:55:00
8:15 AM,60.8,32.0,34,30.08,10.0,Calm,Calm,-,N/A,,Clear,0,2012-10-30 15:15:00
8:35 AM,64.4,33.8,32,30.08,10.0,ESE,4.6,-,N/A,,Clear,110,2012-10-30 15:35:00
8:55 AM,64.4,33.8,32,30.08,10.0,Calm,Calm,-,N/A,,Clear,0,2012-10-30 15:55:00
9:15 AM,68.0,33.8,28,30.08,10.0,Calm,Calm,-,N/A,,Clear,0,2012-10-30 16:15:00
9:35 AM,69.8,35.6,28,30.09,10.0,SE,3.5,-,N/A,,Clear,130,2012-10-30 16:35:00
9:55 AM,69.8,35.6,28,30.08,10.0,Calm,Calm,-,N/A,,Clear,0,2012-10-30 16:55:00
10:15 AM,71.6,35.6,27,30.08,10.0,Calm,Calm,-,N/A,,Clear,0,2012-10-30 17:15:00
10:35 AM,73.4,33.8,23,30.08,10.0,Calm,Calm,-,N/A,,Clear,0,2012-10-30 17:35:00
10:55 AM,75.2,35.6,24,30.08,10.0,Calm,Calm,-,N/A,,Clear,0,2012-10-30 17:55:00
11:15 AM,77.0,35.6,22,30.07,10.0,Calm,Calm,-,N/A,,Clear,0,2012-10-30 18:15:00
11:35 AM,78.8,35.6,21,30.06,10.0,Calm,Calm,-,N/A,,Clear,0,2012-10-30 18:35:00
11:55 AM,80.6,35.6,20,30.05,10.0,Calm,Calm,-,N/A,,Clear,0,2012-10-30 18:55:00
12:15 PM,80.6,35.6,20,30.04,10.0,Calm,Calm,-,N/A,,Clear,0,2012-10-30 19:15:00
12:35 PM,82.4,33.8,17,30.03,10.0,Calm,Calm,-,N/A,,Clear,0,2012-10-30 19:35:00
12:55 PM,82.4,33.8,17,30.02,10.0,Calm,Calm,-,N/A,,Clear,0,2012-10-30 19:55:00
1:15 PM,84.2,33.8,16,30.01,10.0,Calm,Calm,-,N/A,,Clear,0,2012-10-30 20:15:00
1:35 PM,84.2,33.8,16,30.00,10.0,Calm,Calm,-,N/A,,Clear,0,2012-10-30 20:35:00
1:55 PM,84.2,33.8,16,29.99,10.0,Calm,Calm,-,N/A,,Clear,0,2012-10-30 20:55:00
2:35 PM,86.0,33.8,15,29.98,10.0,Calm,Calm,-,N/A,,Clear,0,2012-10-30 21:35:00
2:55 PM,86.0,32.0,14,29.97,10.0,West,4.6,-,N/A,,Clear,260,2012-10-30 21:55:00
3:35 PM,86.0,32.0,14,29.97,10.0,Calm,Calm,-,N/A,,Clear,0,2012-10-30 22:35:00
3:55 PM,86.0,32.0,14,29.97,10.0,Calm,Calm,-,N/A,,Clear,0,2012-10-30 22:55:00
4:15 PM,86.0,32.0,14,29.96,10.0,Calm,Calm,-,N/A,,Clear,0,2012-10-30 23:15:00
4:35 PM,86.0,32.0,14,29.96,10.0,Calm,Calm,-,N/A,,Clear,0,2012-10-30 23:35:00
4:55 PM,84.2,30.2,14,29.96,10.0,Calm,Calm,-,N/A,,Clear,0,2012-10-30 23:55:00
5:15 PM,84.2,30.2,14,29.95,10.0,Calm,Calm,-,N/A,,Clear,0,2012-10-31 00:15:00
5:35 PM,82.4,28.4,14,29.95,10.0,Calm,Calm,-,N/A,,Clear,0,2012-10-31 00:35:00
5:55 PM,78.8,28.4,16,29.96,10.0,Calm,Calm,-,N/A,,Clear,0,2012-10-31 00:55:00
6:15 PM,75.2,26.6,17,29.96,10.0,Calm,Calm,-,N/A,,Clear,0,2012-10-31 01:15:00
6:35 PM,73.4,26.6,18,29.96,10.0,Calm,Calm,-,N/A,,Clear,0,2012-10-31 01:35:00
6:55 PM,71.6,26.6,19,29.96,10.0,Calm,Calm,-,N/A,,Clear,0,2012-10-31 01:55:00
7:15 PM,71.6,26.6,19,29.97,10.0,Calm,Calm,-,N/A,,Clear,0,2012-10-31 02:15:00
7:35 PM,68.0,26.6,21,29.97,10.0,Calm,Calm,-,N/A,,Clear,0,2012-10-31 02:35:00
7:55 PM,68.0,26.6,21,29.97,10.0,Calm,Calm,-,N/A,,Clear,0,2012-10-31 02:55:00
8:15 PM,66.2,26.6,23,29.97,10.0,Calm,Calm,-,N/A,,Clear,0,2012-10-31 03:15:00
8:35 PM,66.2,24.8,21,29.97,10.0,Calm,Calm,-,N/A,,Clear,0,2012-10-31 03:35:00
8:55 PM,64.4,24.8,22,29.98,10.0,Calm,Calm,-,N/A,,Clear,0,2012-10-31 03:55:00
9:15 PM,66.2,24.8,21,29.98,10.0,Calm,Calm,-,N/A,,Clear,0,2012-10-31 04:15:00
9:35 PM,64.4,24.8,22,29.98,10.0,Calm,Calm,-,N/A,,Clear,0,2012-10-31 04:35:00
9:55 PM,60.8,23.0,23,29.99,10.0,Calm,Calm,-,N/A,,Clear,0,2012-10-31 04:55:00
10:15 PM,60.8,24.8,25,29.99,10.0,Calm,Calm,-,N/A,,Clear,0,2012-10-31 05:15:00
10:35 PM,62.6,24.8,24,29.99,10.0,Calm,Calm,-,N/A,,Clear,0,2012-10-31 05:35:00
10:55 PM,59.0,24.8,27,29.99,10.0,Calm,Calm,-,N/A,,Clear,0,2012-10-31 05:55:00
11:15 PM,59.0,24.8,27,29.99,10.0,Calm,Calm,-,N/A,,Clear,0,2012-10-31 06:15:00
11:35 PM,57.2,24.8,29,29.99,10.0,Calm,Calm,-,N/A,,Clear,0,2012-10-31 06:35:00
11:55 PM,57.2,24.8,29,29.99,10.0,Calm,Calm,-,N/A,,Clear,0,2012-10-31 06:55:00